Latest Weather Observations for Telfer

IDW60801

Issued at 6:02 am WST Sunday 5 July 2015 (issued every 30 minutes, with the page automatically refreshed every 10 minutes)

About weather observations | Map of weather stations | Latest weather observations for WA | Other Formats
Station Details ID: 013030 Name: TELFER AERO Lat: -21.71 Lon: 122.23 Height: 291.9 m
Data from the previous 72 hours. | See also: Recent months at Telfer
Date/Time
WST
Temp
°C
App
Temp
°C
Dew
Point
Rel
Hum
%
Delta-T
°C
Wind Press
QNH
hPa
Press
MSL
hPa
Rain
since 9 am
mm
Dir
 
Spd
km/h
Gust
km/h
Spd
kts
Gust
kts
05/06:00am 12.2 7.3 -0.6 41 5.3 SE 15 19 8 10 1019.8 1019.2 0.0
05/05:30am 12.5 7.6 -0.4 41 5.3 SE 15 20 8 11 1019.5 1018.9 0.0
05/05:00am 12.1 7.2 -0.4 42 5.2 SE 15 17 8 9 1019.2 1018.6 0.0
05/04:30am 12.0 7.5 -0.5 42 5.2 SE 13 17 7 9 1019.1 1018.4 0.0
05/04:00am 12.5 7.6 -0.4 41 5.3 SE 15 17 8 9 1019.1 1018.4 0.0
05/03:30am 10.9 6.4 -0.2 46 4.6 SE 13 15 7 8 1019.1 1018.4 0.0
05/03:00am 10.6 6.0 -0.8 45 4.6 SE 13 17 7 9 1019.1 1018.4 0.0
05/02:30am 12.0 7.5 -0.2 43 5.1 SE 13 17 7 9 1019.0 1018.3 0.0
05/02:00am 12.8 7.9 -0.4 40 5.5 SE 15 17 8 9 1019.0 1018.3 0.0
05/01:30am 12.7 7.8 -0.5 40 5.5 SE 15 19 8 10 1019.0 1018.3 0.0
05/01:00am 13.8 8.5 -0.6 37 6.0 SE 17 19 9 10 1019.3 1018.7 0.0
05/12:30am 15.3 9.6 -0.4 34 6.7 SSE 19 24 10 13 1019.2 1018.6 0.0
05/12:00am 15.6 10.4 -0.2 34 6.8 SSE 17 22 9 12 1019.1 1018.4 0.0
 
Date/Time
WST
Temp
°C
App
Temp
°C
Dew
Point
Rel
Hum
%
Delta-T
°C
Wind Press
QNH
hPa
Press
MSL
hPa
Rain
since 9 am
mm
Dir
 
Spd
km/h
Gust
km/h
Spd
kts
Gust
kts
04/11:30pm 16.5 10.7 -0.2 32 7.2 SSE 20 24 11 13 1019.2 1018.6 0.0
04/11:00pm 16.7 11.5 -0.1 32 7.3 SSE 17 22 9 12 1019.3 1018.7 0.0
04/10:30pm 17.0 12.5 -0.2 31 7.5 SSE 13 17 7 9 1019.6 1019.0 0.0
04/10:00pm 17.3 12.4 -0.4 30 7.7 SSE 15 19 8 10 1019.8 1019.2 0.0
04/09:30pm 17.7 12.4 -0.5 29 7.9 SSE 17 19 9 10 1019.9 1019.3 0.0
04/09:00pm 17.8 12.8 -0.9 28 8.1 SSE 15 17 8 9 1019.8 1019.2 0.0
04/08:30pm 19.0 14.0 -0.9 26 8.7 SSE 15 17 8 9 1019.7 1019.1 0.0
04/08:00pm 18.6 14.0 -0.7 27 8.4 SSE 13 15 7 8 1019.5 1018.9 0.0
04/07:30pm 19.0 14.8 -0.9 26 8.7 SSE 11 15 6 8 1019.4 1018.8 0.0
04/07:00pm 18.8 14.2 -1.1 26 8.6 SSE 13 15 7 8 1019.2 1018.6 0.0
04/06:30pm 19.2 14.9 -1.3 25 8.9 SE 11 13 6 7 1019.0 1018.3 0.0
04/06:00pm 19.9 16.0 -1.2 24 9.2 SE 9 11 5 6 1018.8 1018.1 0.0
04/05:30pm 21.5 17.3 -1.1 22 10.0 ESE 11 13 6 7 1018.6 1017.9 0.0
04/05:00pm 23.5 17.7 -1.4 19 11.2 ESE 19 24 10 13 1018.5 1017.8 0.0
04/04:30pm 24.3 17.9 -1.5 18 11.6 ESE 22 28 12 15 1018.3 1017.6 0.0
04/04:00pm 24.7 17.5 -2.0 17 12.0 ESE 26 33 14 18 1018.3 1017.6 0.0
04/03:30pm 25.1 17.8 -2.5 16 12.3 SE 26 41 14 22 1018.3 1017.6 0.0
04/03:00pm 25.4 18.6 -2.2 16 12.4 SE 24 39 13 21 1018.3 1017.6 0.0
04/02:30pm 25.6 18.0 -2.1 16 12.5 ESE 28 37 15 20 1018.5 1017.8 0.0
04/02:00pm 25.3 18.1 -2.3 16 12.3 SE 26 41 14 22 1018.7 1018.0 0.0
04/01:30pm 24.7 17.9 -2.0 17 12.0 ESE 24 39 13 21 1018.8 1018.1 0.0
04/01:00pm 25.1 18.0 -1.6 17 12.1 ESE 26 37 14 20 1019.1 1018.4 0.0
04/12:30pm 24.8 18.0 -1.9 17 12.0 SE 24 35 13 19 1019.5 1018.9 0.0
04/12:00pm 24.4 16.9 -1.4 18 11.6 ESE 28 41 15 22 1020.2 1019.6 0.0
04/11:30am 23.9 17.6 -1.1 19 11.3 ESE 22 39 12 21 1020.8 1020.1 0.0
04/11:00am 23.7 17.6 0.1 21 10.9 E 22 28 12 15 1021.3 1020.6 0.0
04/10:30am 22.7 16.4 -0.7 21 10.6 E 22 32 12 17 1021.5 1020.8 0.0
04/10:00am 21.4 15.7 -0.6 23 9.8 E 19 26 10 14 1021.8 1021.1 0.0
04/09:30am 20.4 15.1 -0.8 24 9.4 E 17 26 9 14 1021.9 1021.2 0.0
04/09:00am 18.4 13.4 -0.9 27 8.4 ESE 15 19 8 10 1022.0 1021.3 0.0
04/08:30am 16.5 11.6 -0.7 31 7.3 SE 15 20 8 11 1021.8 1021.1 0.0
04/08:00am 14.4 8.7 -0.8 35 6.4 SSE 19 22 10 12 1021.5 1020.8 0.0
04/07:30am 14.0 8.7 -0.8 36 6.2 SE 17 20 9 11 1021.2 1020.5 0.0
04/07:00am 11.0 6.5 -0.5 45 4.7 SE 13 17 7 9 1020.8 1020.1 0.0
04/06:30am 9.8 5.2 -1.3 46 4.4 SE 13 17 7 9 1020.6 1019.9 0.0
04/06:00am 12.4 7.1 -0.8 40 5.4 SE 17 20 9 11 1020.4 1019.7 0.0
04/05:30am 12.6 7.3 -0.6 40 5.5 SE 17 19 9 10 1020.2 1019.6 0.0
04/05:00am 13.7 8.4 -0.7 37 6.0 SE 17 20 9 11 1020.0 1019.4 0.0
04/04:30am 13.4 8.9 -0.6 38 5.8 SSE 13 19 7 10 1020.0 1019.4 0.0
04/04:00am 13.7 8.8 -0.3 38 5.9 SSE 15 17 8 9 1020.0 1019.4 0.0
04/03:30am 14.3 9.0 -0.6 36 6.3 SSE 17 22 9 12 1020.0 1019.4 0.0
04/03:00am 14.4 9.1 -0.5 36 6.3 SSE 17 20 9 11 1020.0 1019.4 0.0
04/02:30am 14.8 9.9 -0.5 35 6.5 SSE 15 20 8 11 1020.1 1019.5 0.0
04/02:00am 13.7 8.8 -0.3 38 5.9 SE 15 19 8 10 1020.0 1019.4 0.0
04/01:30am 15.7 10.5 -0.1 34 6.8 SSE 17 20 9 11 1020.1 1019.5 0.0
04/01:00am 14.9 10.1 0.0 36 6.4 SSE 15 17 8 9 1020.4 1019.7 0.0
04/12:30am 15.4 10.6 0.0 35 6.6 SE 15 19 8 10 1020.4 1019.7 0.0
04/12:00am 16.8 11.7 0.5 33 7.2 SSE 17 20 9 11 1020.5 1019.8 0.0
 
Date/Time
WST
Temp
°C
App
Temp
°C
Dew
Point
Rel
Hum
%
Delta-T
°C
Wind Press
QNH
hPa
Press
MSL
hPa
Rain
since 9 am
mm
Dir
 
Spd
km/h
Gust
km/h
Spd
kts
Gust
kts
03/11:30pm 15.4 10.6 0.4 36 6.5 SSE 15 17 8 9 1020.8 1020.1 0.0
03/11:00pm 16.5 11.4 1.0 35 6.9 SSE 17 19 9 10 1021.0 1020.3 0.0
03/10:30pm 14.3 9.9 0.2 38 6.0 SE 13 15 7 8 1021.2 1020.5 0.0
03/10:00pm 17.5 12.4 0.6 32 7.5 SSE 17 20 9 11 1021.2 1020.5 0.0
03/09:30pm 17.0 12.3 1.0 34 7.1 SSE 15 17 8 9 1021.3 1020.6 0.0
03/09:00pm 15.8 11.5 0.8 36 6.6 SE 13 17 7 9 1021.3 1020.6 0.0
03/08:30pm 18.5 14.3 1.5 32 7.8 SSE 13 19 7 10 1021.3 1020.6 0.0
03/08:00pm 17.3 13.4 0.9 33 7.3 SE 11 13 6 7 1021.2 1020.5 0.0
03/07:30pm 18.3 14.4 0.9 31 7.8 SSE 11 13 6 7 1021.0 1020.3 0.0
03/07:00pm 18.8 14.9 0.9 30 8.1 SE 11 13 6 7 1020.7 1020.0 0.0
03/06:30pm 20.9 16.7 1.7 28 9.0 SSE 13 17 7 9 1020.2 1019.6 0.0
03/06:00pm 22.4 17.9 2.0 26 9.7 S 15 19 8 10 1019.8 1019.2 0.0
03/05:30pm 23.2 19.0 1.5 24 10.3 SSE 13 17 7 9 1019.5 1018.9 0.0
03/05:00pm 24.6 20.0 1.5 22 11.0 SSE 15 19 8 10 1019.2 1018.6 0.0
03/04:30pm 25.1 21.7 1.9 22 11.2 SSW 9 15 5 8 1019.0 1018.3 0.0
03/04:00pm 25.6 21.4 1.7 21 11.5 S 13 22 7 12 1018.8 1018.1 0.0
03/03:30pm 25.7 22.3 1.8 21 11.6 SE 9 15 5 8 1018.6 1017.9 0.0
03/03:00pm 25.8 22.8 1.8 21 11.6 SSE 7 22 4 12 1018.7 1018.0 0.0
03/02:30pm 25.6 22.2 1.7 21 11.6 S 9 28 5 15 1019.0 1018.3 0.0
03/02:00pm 25.2 20.7 2.0 22 11.2 SSW 15 24 8 13 1019.2 1018.6 0.0
03/01:30pm 25.6 20.3 1.7 21 11.6 SE 19 28 10 15 1019.6 1019.0 0.0
03/01:00pm 25.5 20.5 1.6 21 11.5 ESE 17 30 9 16 1019.9 1019.3 0.0
03/12:30pm 25.9 20.6 1.9 21 11.7 SE 19 30 10 16 1020.2 1019.6 0.0
03/12:00pm 25.0 19.5 1.8 22 11.2 SE 20 28 11 15 1020.9 1020.2 0.0
03/11:30am 24.2 18.7 1.8 23 10.7 SE 20 33 11 18 1021.5 1020.8 0.0
03/11:00am 24.0 18.2 2.2 24 10.5 ESE 22 33 12 18 1022.0 1021.3 0.0
03/10:30am 23.3 17.8 1.6 24 10.3 ESE 20 26 11 14 1022.4 1021.8 0.0
03/10:00am 22.2 17.3 1.8 26 9.6 SE 17 24 9 13 1022.8 1022.2 0.0
03/09:30am 21.0 15.7 1.8 28 9.0 SE 19 22 10 12 1023.0 1022.4 0.0
03/09:00am 19.3 14.3 1.3 30 8.2 SE 17 24 9 13 1023.2 1022.6 0.0
03/08:30am 17.5 12.1 1.5 34 7.2 SE 19 22 10 12 1023.1 1022.5 0.0
03/08:00am 16.1 10.5 1.4 37 6.5 SE 20 24 11 13 1022.9 1022.3 0.0
03/07:30am 14.8 9.4 1.3 40 5.9 SE 19 22 10 12 1022.6 1022.0 0.0
03/07:00am 14.2 9.2 1.5 42 5.6 SE 17 20 9 11 1022.3 1021.7 0.0
03/06:30am 13.6 8.6 1.6 44 5.3 SSE 17 20 9 11 1021.9 1021.2 0.0
03/06:00am 13.6 8.6 1.6 44 5.2 SSE 17 20 9 11 1021.6 1020.9 0.0
03/05:30am 12.8 7.8 1.5 46 4.9 SE 17 20 9 11 1021.4 1020.7 0.0
03/05:00am 11.5 7.3 1.7 51 4.2 SE 13 15 7 8 1021.1 1020.4 0.0
03/04:30am 12.9 8.0 1.9 47 4.8 SE 17 20 9 11 1021.0 1020.3 0.0
03/04:00am 14.9 9.4 2.1 42 5.7 SSE 20 26 11 14 1020.9 1020.2 0.0
03/03:30am 15.1 9.3 2.3 42 5.8 SSE 22 30 12 16 1020.9 1020.2 0.0
03/03:00am 15.5 9.3 2.3 41 6.0 SSE 24 30 13 16 1021.0 1020.3 0.0
03/02:30am 15.6 9.4 2.4 41 6.0 SSE 24 30 13 16 1021.3 1020.6 0.0
03/02:00am 13.4 8.5 2.0 46 5.0 SE 17 19 9 10 1021.7 1021.0 0.0
03/01:30am 15.2 10.3 2.1 41 5.9 SE 17 19 9 10 1021.7 1021.0 0.0
03/01:00am 16.2 11.3 2.2 39 6.3 SSE 17 20 9 11 1021.9 1021.2 0.0
03/12:30am 16.6 12.1 2.2 38 6.6 SSE 15 19 8 10 1022.0 1021.3 0.0
03/12:00am 17.6 12.8 2.8 37 6.9 SSE 17 20 9 11 1022.1 1021.5 0.0
 
Date/Time
WST
Temp
°C
App
Temp
°C
Dew
Point
Rel
Hum
%
Delta-T
°C
Wind Press
QNH
hPa
Press
MSL
hPa
Rain
since 9 am
mm
Dir
 
Spd
km/h
Gust
km/h
Spd
kts
Gust
kts
02/11:30pm 17.8 13.4 2.5 36 7.1 SSE 15 19 8 10 1022.2 1021.6 0.0
02/11:00pm 16.9 12.8 2.5 38 6.6 SSE 13 17 7 9 1022.3 1021.7 0.0
02/10:30pm 16.1 11.2 1.8 38 6.4 SE 17 26 9 14 1022.4 1021.8 0.0
02/10:00pm 16.1 11.9 1.8 38 6.4 ESE 13 20 7 11 1022.5 1021.9 0.0
02/09:30pm 19.3 14.4 2.2 32 8.0 SSE 17 22 9 12 1022.4 1021.8 0.0
02/09:00pm 19.5 14.7 2.4 32 8.0 SSE 17 22 9 12 1022.2 1021.6 0.0
02/08:30pm 20.1 15.3 2.5 31 8.3 SSE 17 20 9 11 1022.1 1021.5 0.0
02/08:00pm 20.9 16.1 2.7 30 8.6 SSE 17 22 9 12 1021.9 1021.2 0.0
02/07:30pm 21.2 16.4 2.5 29 8.9 SSE 17 20 9 11 1021.6 1020.9 0.0
02/07:00pm 21.9 17.5 2.6 28 9.2 SSE 15 19 8 10 1021.5 1020.8 0.0
02/06:30pm 21.9 17.9 2.6 28 9.2 SSE 13 19 7 10 1021.2 1020.5 0.0
02/06:00pm 22.6 18.2 2.7 27 9.6 SSE 15 17 8 9 1020.9 1020.2 0.0
02/05:30pm 23.6 20.0 3.0 26 10.1 SSE 11 13 6 7 1020.7 1020.0 0.0
02/05:00pm 25.2 21.3 3.2 24 10.9 SSE 13 19 7 10 1020.4 1019.7 0.0
02/04:30pm 26.0 21.7 3.3 23 11.3 ESE 15 20 8 11 1020.2 1019.6 0.0
02/04:00pm 26.5 21.8 3.1 22 11.7 ESE 17 28 9 15 1020.1 1019.5 0.0
02/03:30pm 26.6 22.7 3.2 22 11.7 SE 13 19 7 10 1020.0 1019.4 0.0
02/03:00pm 26.7 23.1 3.2 22 11.7 NE 11 20 6 11 1020.1 1019.5 0.0
02/02:30pm 26.7 23.3 3.9 23 11.6 E 11 19 6 10 1020.2 1019.6 0.0
02/02:00pm 26.7 22.1 3.9 23 11.5 SE 17 24 9 13 1020.6 1019.9 0.0
02/01:30pm 26.7 22.5 3.9 23 11.6 E 15 32 8 17 1020.9 1020.2 0.0
02/01:00pm 26.6 22.0 3.8 23 11.5 E 17 24 9 13 1021.3 1020.6 0.0
02/12:30pm 25.7 20.7 3.6 24 11.1 NE 19 33 10 18 1021.8 1021.1 0.0
02/12:00pm 25.6 20.1 4.1 25 10.8 NE 22 35 12 19 1022.4 1021.8 0.0
02/11:30am 25.5 20.5 3.5 24 11.0 E 19 32 10 17 1023.1 1022.5 0.0
02/11:00am 25.4 19.9 4.0 25 10.7 E 22 30 12 16 1023.7 1023.1 0.0
02/10:30am 24.3 18.7 3.6 26 10.3 E 22 32 12 17 1024.4 1023.7 0.0
02/10:00am 23.0 17.4 3.5 28 9.5 E 22 32 12 17 1024.8 1024.1 0.0
02/09:30am 21.8 17.2 3.5 30 8.9 E 17 22 9 12 1024.9 1024.2 0.0
02/09:00am 19.3 15.4 3.5 35 7.5 SE 13 17 7 9 1024.9 1024.2 0.0
02/08:30am 17.3 13.0 3.2 39 6.6 SE 15 19 8 10 1024.8 1024.1 0.0
02/08:00am 15.7 11.0 3.2 43 5.7 SE 17 20 9 11 1024.4 1023.7 0.0
02/07:30am 14.8 9.5 3.0 45 5.4 SE 20 24 11 13 1024.1 1023.4 0.0
02/07:00am 14.3 9.6 2.9 46 5.2 SE 17 20 9 11 1023.7 1023.1 0.0
02/06:30am 12.2 8.2 2.6 52 4.3 SE 13 19 7 10 1023.5 1022.9 0.0

Other Formats:

Comma delimited format used in spreadsheet applications
http://www.bom.gov.au/fwo/IDW60801/IDW60801.94319.axf

JavaScript Object Notation format (JSON) in row-major order
http://www.bom.gov.au/fwo/IDW60801/IDW60801.94319.json